Time;durP1;ratioP1;P1;durP2;ratioP2;P2;SDS_P1;SDS_P2;PMS_P1;PMS_P2;Temp;Humidity;BMP_temperature;BMP_pressure;BME280_temperature;BME280_humidity;BME280_pressure;Samples;Min_cycle;Max_cycle;Signal;HPM_P1;HPM_P2
2023/10/26 00:01:58;;;;;;;;;6.00;3.00;;;;;19.39;62.55;99972.41;146611;679;46010;-69
2023/10/26 00:05:03;;;;;;;;;3.33;2.33;;;;;21.04;62.41;100265.94;146606;601;46914;-69
2023/10/26 00:08:15;;;;;;;;;5.33;3.00;;;;;20.08;62.27;100110.31;146608;702;46020;-69
2023/10/26 00:11:16;;;;;;;;;1.67;1.00;;;;;21.06;61.59;100274.72;146608;580;47012;-68
2023/10/26 00:14:12;;;;;;;;;2.00;2.00;;;;;20.99;60.81;100273.81;146608;696;46020;-71
2023/10/26 00:17:30;;;;;;;;;;;;;;;;;;;;;
2023/10/26 00:20:31;;;;;;;;;3.00;2.00;;;;;20.90;61.25;100279.06;146608;615;46010;-69
2023/10/26 00:23:34;;;;;;;;;4.67;3.00;;;;;20.88;61.98;100280.84;146605;571;46016;-67
2023/10/26 00:26:32;;;;;;;;;4.00;2.67;;;;;20.83;61.99;100270.28;146610;570;46010;-67
2023/10/26 00:29:34;;;;;;;;;4.67;2.67;;;;;20.79;61.79;100267.66;146606;698;47012;-67
2023/10/26 00:32:47;;;;;;;;;5.67;3.00;;;;;20.77;61.76;100265.88;146610;700;46020;-68
2023/10/26 00:35:47;;;;;;;;;3.67;2.33;;;;;20.75;62.22;100267.66;146607;578;46014;-68
2023/10/26 00:38:55;;;;;;;;;3.00;1.00;;;;;20.78;62.77;100266.78;146607;585;46020;-66
2023/10/26 00:42:09;;;;;;;;;3.00;2.00;;;;;20.81;62.79;100257.97;146604;596;46014;-69
2023/10/26 00:45:05;;;;;;;;;7.00;4.00;;;;;20.81;62.11;100252.69;146609;566;46014;-67
2023/10/26 00:48:14;;;;;;;;;2.67;2.00;;;;;20.77;62.92;100257.09;146606;686;46013;-67
2023/10/26 00:51:21;;;;;;;;;4.00;1.00;;;;;20.77;62.76;100252.69;146612;592;45020;-68
2023/10/26 00:54:15;;;;;;;;;2.00;1.00;;;;;20.70;62.64;100247.44;146605;565;46016;-69
2023/10/26 00:57:12;;;;;;;;;2.33;2.00;;;;;20.62;62.42;100238.62;146608;587;46010;-67
2023/10/26 01:00:34;;;;;;;;;;;;;;;;;;;;;
2023/10/26 01:03:40;;;;;;;;;6.00;3.00;;;;;20.50;63.12;100239.44;146610;684;46010;-67
2023/10/26 01:06:43;;;;;;;;;3.33;1.00;;;;;20.50;62.53;100242.97;146609;569;46012;-66
2023/10/26 01:09:47;;;;;;;;;5.00;2.00;;;;;20.48;62.93;100241.19;146610;579;46021;-66
2023/10/26 01:12:57;;;;;;;;;3.33;3.00;;;;;20.44;63.47;100252.59;146603;615;47014;-67
2023/10/26 01:15:57;;;;;;;;;3.33;2.33;;;;;20.38;63.54;100253.44;146607;595;46020;-66
2023/10/26 01:19:13;;;;;;;;;;;;;;;;;;;;;
2023/10/26 01:22:33;;;;;;;;;2.67;0.67;;;;;19.18;63.95;100062.56;146609;608;46020;-67
2023/10/26 01:25:48;;;;;;;;;1.33;1.00;;;;;20.20;63.94;100259.50;146605;634;46014;-67
2023/10/26 01:28:51;;;;;;;;;2.67;1.00;;;;;20.18;64.19;100266.50;146609;720;46020;-66
2023/10/26 01:31:55;;;;;;;;;3.33;1.00;;;;;20.15;64.23;100253.31;146605;589;46017;-67
2023/10/26 01:34:59;;;;;;;;;1.67;1.33;;;;;18.51;64.51;99980.69;146609;571;46020;-66
2023/10/26 01:38:05;;;;;;;;;6.00;4.00;;;;;20.06;64.57;100256.81;146605;655;46016;-66
2023/10/26 01:41:06;;;;;;;;;5.00;2.67;;;;;20.05;63.93;100246.28;146609;604;46020;-65
2023/10/26 01:44:10;;;;;;;;;4.33;3.00;;;;;20.04;64.36;100244.53;146609;614;46012;-66
2023/10/26 01:47:08;;;;;;;;;2.67;1.67;;;;;20.05;63.89;100238.38;146610;597;46010;-67
2023/10/26 01:50:06;;;;;;;;;5.33;2.00;;;;;20.09;63.59;100242.78;146607;675;46016;-67
2023/10/26 01:53:27;;;;;;;;;3.00;1.33;;;;;20.11;63.82;100238.41;146609;618;46020;-68
2023/10/26 01:56:51;;;;;;;;;9.00;5.00;;;;;19.17;64.25;100075.69;146608;570;46014;-66
2023/10/26 01:59:46;;;;;;;;;3.00;2.00;;;;;20.11;63.66;100233.16;146610;575;46014;-66
2023/10/26 02:02:46;;;;;;;;;3.00;2.00;;;;;20.12;63.55;100236.66;146607;565;46034;-69
2023/10/26 02:05:44;;;;;;;;;3.00;2.00;;;;;20.10;62.91;100234.03;146608;647;46029;-67
2023/10/26 02:08:43;;;;;;;;;3.00;1.67;;;;;20.12;63.22;100240.16;146607;584;46012;-68
2023/10/26 02:11:37;;;;;;;;;5.33;2.00;;;;;20.14;63.22;100243.69;146609;685;46020;-67
2023/10/26 02:14:37;;;;;;;;;2.00;1.00;;;;;20.18;62.45;100239.31;146608;701;46016;-67
2023/10/26 02:17:40;;;;;;;;;2.00;2.00;;;;;20.19;63.27;100231.44;146608;604;46021;-68
2023/10/26 02:20:58;;;;;;;;;3.67;2.00;;;;;20.18;63.29;100229.66;146606;569;46016;-68
2023/10/26 02:23:59;;;;;;;;;3.33;1.33;;;;;20.20;63.42;100234.94;146611;583;46014;-68
2023/10/26 02:27:07;;;;;;;;;7.67;3.00;;;;;20.26;64.32;100233.22;146606;576;46012;-67
2023/10/26 02:30:14;;;;;;;;;4.33;3.00;;;;;20.28;64.22;100236.75;146610;587;46020;-67
2023/10/26 02:33:24;;;;;;;;;5.33;1.67;;;;;20.33;64.67;100244.63;146606;723;46014;-68
2023/10/26 02:36:27;;;;;;;;;4.00;2.00;;;;;20.33;63.46;100244.63;146607;573;46020;-66
2023/10/26 02:39:48;;;;;;;;;4.67;3.33;;;;;18.81;63.87;99987.91;146606;662;46017;-67
2023/10/26 02:42:48;;;;;;;;;2.67;1.00;;;;;20.35;63.99;100255.19;146609;761;46020;-67
2023/10/26 02:46:16;;;;;;;;;5.67;3.00;;;;;20.37;64.32;100264.84;146607;597;46015;-68
2023/10/26 02:49:16;;;;;;;;;3.00;2.00;;;;;20.33;64.76;100259.56;146608;573;46020;-67
2023/10/26 02:52:27;;;;;;;;;4.33;2.33;;;;;20.22;65.04;100252.50;146607;585;46017;-66
2023/10/26 02:55:40;;;;;;;;;;;;;;;;;;;;;
2023/10/26 02:58:34;;;;;;;;;3.00;2.00;;;;;20.13;66.04;100254.22;146607;572;46029;-68
2023/10/26 03:01:40;;;;;;;;;2.33;1.00;;;;;20.14;65.75;100248.94;146613;689;45021;-64
2023/10/26 03:04:49;;;;;;;;;3.67;2.00;;;;;20.13;65.76;100241.94;146604;569;46016;-65
2023/10/26 03:07:53;;;;;;;;;5.00;2.00;;;;;20.12;65.65;100252.44;146609;593;46020;-65
2023/10/26 03:10:48;;;;;;;;;5.67;2.33;;;;;20.07;65.67;100255.94;146607;574;46033;-65
2023/10/26 03:13:48;;;;;;;;;5.67;4.00;;;;;20.01;65.74;100252.41;146609;650;46020;-65
2023/10/26 03:17:12;;;;;;;;;6.67;4.00;;;;;18.35;66.18;99977.94;146607;684;46016;-66
2023/10/26 03:20:20;;;;;;;;;8.00;3.00;;;;;19.97;66.13;100251.50;146605;649;46913;-65
2023/10/26 03:23:38;;;;;;;;;8.67;4.67;;;;;18.41;66.20;99999.00;146602;716;47916;-66
2023/10/26 03:26:34;;;;;;;;;5.33;5.00;;;;;19.87;67.18;100269.84;146609;569;46020;-67
2023/10/26 03:29:31;;;;;;;;;6.67;5.00;;;;;19.87;67.84;100269.84;146608;667;46012;-65
2023/10/26 03:32:32;;;;;;;;;8.00;4.67;;;;;19.87;67.33;100265.47;146607;584;46021;-65
2023/10/26 03:35:33;;;;;;;;;6.33;3.67;;;;;19.86;68.20;100266.34;146609;594;46016;-66
2023/10/26 03:39:00;;;;;;;;;8.33;5.00;;;;;18.30;67.59;99998.00;146609;592;46021;-66
2023/10/26 03:42:04;;;;;;;;;4.00;2.33;;;;;19.79;67.41;100273.31;146606;590;47012;-66
2023/10/26 03:45:00;;;;;;;;;7.00;2.00;;;;;19.73;67.98;100280.28;146612;630;46011;-66
2023/10/26 03:47:59;;;;;;;;;7.00;3.33;;;;;19.73;67.84;100280.28;146606;585;47016;-68
2023/10/26 03:51:02;;;;;;;;;6.33;5.00;;;;;19.74;68.02;100276.78;146610;569;46020;-66
2023/10/26 03:53:57;;;;;;;;;9.00;4.00;;;;;19.76;68.02;100285.59;146604;676;46017;-66
2023/10/26 03:57:01;;;;;;;;;3.33;3.00;;;;;19.79;68.39;100289.09;146609;610;46014;-66
2023/10/26 03:59:57;;;;;;;;;3.33;2.00;;;;;19.79;68.08;100285.59;146607;656;46013;-66
2023/10/26 04:02:58;;;;;;;;;8.33;4.00;;;;;19.74;67.95;100277.66;146607;566;46020;-66
2023/10/26 04:05:54;;;;;;;;;5.00;3.33;;;;;19.72;67.77;100284.69;146607;754;46012;-67
2023/10/26 04:08:48;;;;;;;;;8.00;5.00;;;;;19.76;68.21;100296.09;146609;616;46014;-66
2023/10/26 04:12:07;;;;;;;;;5.00;5.00;;;;;19.78;67.53;100294.34;146608;595;46016;-66
2023/10/26 04:15:22;;;;;;;;;10.67;7.33;;;;;18.00;67.36;99988.13;146609;626;46021;-65
2023/10/26 04:18:20;;;;;;;;;6.00;3.00;;;;;19.80;68.46;100301.37;146607;657;46016;-67
2023/10/26 04:21:18;;;;;;;;;7.67;4.67;;;;;19.81;68.20;100292.62;146610;561;46020;-66
2023/10/26 04:24:27;;;;;;;;;5.33;4.33;;;;;19.78;68.60;100296.97;146606;569;47012;-66
2023/10/26 04:27:26;;;;;;;;;6.00;5.00;;;;;19.73;68.29;100304.84;146609;646;45020;-66
2023/10/26 04:30:32;;;;;;;;;3.67;3.33;;;;;19.75;68.43;100310.09;146608;587;46012;-65
2023/10/26 04:33:48;;;;;;;;;7.33;7.00;;;;;19.78;68.32;100312.75;146609;608;46020;-67
2023/10/26 04:36:52;;;;;;;;;10.00;9.67;;;;;19.79;68.68;100319.81;146606;583;46016;-68
2023/10/26 04:40:01;;;;;;;;;10.00;5.67;;;;;19.78;69.08;100334.72;146608;597;46014;-66
2023/10/26 04:42:54;;;;;;;;;5.33;5.33;;;;;19.79;68.83;100343.47;146607;644;46016;-67
2023/10/26 04:46:11;;;;;;;;;7.00;5.00;;;;;18.16;68.19;100062.59;146609;596;47014;-66
2023/10/26 04:49:03;;;;;;;;;5.33;4.00;;;;;19.78;70.20;100345.22;146604;687;46016;-66
2023/10/26 04:52:16;;;;;;;;;;;;;;;;;;;;;
2023/10/26 04:55:34;;;;;;;;;;;;;;;;;;;;;
2023/10/26 04:58:38;;;;;;;;;4.33;3.00;;;;;20.04;70.83;100352.44;146608;614;46029;-66
2023/10/26 05:01:36;;;;;;;;;9.00;6.00;;;;;20.04;70.09;100347.16;146603;584;47014;-67
2023/10/26 05:04:29;;;;;;;;;4.00;3.00;;;;;19.97;69.70;100347.97;146610;604;46010;-65
2023/10/26 05:07:25;;;;;;;;;8.00;6.00;;;;;19.93;69.32;100339.19;146604;610;46017;-67
2023/10/26 05:10:27;;;;;;;;;6.33;3.33;;;;;19.93;69.93;100327.78;146608;650;46020;-66
2023/10/26 05:13:38;;;;;;;;;7.00;5.00;;;;;19.96;69.96;100328.69;146629;578;45032;-67
2023/10/26 05:16:41;;;;;;;;;2.33;2.33;;;;;20.00;69.81;100329.56;146626;646;45021;-67
2023/10/26 05:19:36;;;;;;;;;7.00;5.67;;;;;20.08;69.58;100352.44;146627;583;45016;-65
2023/10/26 05:22:31;;;;;;;;;7.33;4.00;;;;;20.09;69.48;100350.69;146630;574;45021;-66
2023/10/26 05:25:29;;;;;;;;;8.67;6.33;;;;;20.18;69.83;100352.50;146626;610;45914;-68
2023/10/26 05:28:29;;;;;;;;;11.33;6.00;;;;;20.23;69.53;100343.78;146629;588;45021;-66
2023/10/26 05:31:27;;;;;;;;;7.00;4.33;;;;;20.29;69.83;100351.69;146624;587;46914;-66
2023/10/26 05:34:40;;;;;;;;;4.67;4.33;;;;;20.42;70.25;100351.78;146628;563;45020;-67
2023/10/26 05:37:42;;;;;;;;;6.00;4.67;;;;;20.56;70.46;100339.59;146629;575;46012;-66
2023/10/26 05:40:51;;;;;;;;;8.67;5.00;;;;;20.76;69.69;100337.91;146631;576;46010;-66
2023/10/26 05:44:06;;;;;;;;;5.00;5.00;;;;;19.92;67.71;100158.50;146622;682;46015;-67
2023/10/26 05:47:09;;;;;;;;;9.33;8.33;;;;;20.91;68.93;100318.63;146630;604;45020;-67
2023/10/26 05:50:34;;;;;;;;;;;;;;;;;;;;;
2023/10/26 05:53:40;;;;;;;;;9.67;6.00;;;;;21.03;67.30;100308.97;146629;642;46010;-66
2023/10/26 05:56:33;;;;;;;;;7.67;7.00;;;;;21.03;67.90;100304.59;146630;569;45016;-67
2023/10/26 05:59:27;;;;;;;;;8.00;5.67;;;;;21.03;68.68;100307.25;146630;616;45918;-67
2023/10/26 06:02:19;;;;;;;;;5.33;4.00;;;;;21.07;68.71;100309.00;146629;569;45016;-68
2023/10/26 06:05:28;;;;;;;;;11.67;5.00;;;;;19.39;68.23;100014.47;146630;564;45010;-67
2023/10/26 06:08:23;;;;;;;;;8.67;5.67;;;;;21.16;68.98;100321.31;146628;564;45016;-68
2023/10/26 06:11:27;;;;;;;;;;;;;;;;;;;;;
2023/10/26 06:14:29;;;;;;;;;8.67;7.67;;;;;21.23;68.25;100338.91;146607;595;46018;-68
2023/10/26 06:17:24;;;;;;;;;9.33;8.67;;;;;21.20;69.06;100346.81;146607;613;47010;-68
2023/10/26 06:20:28;;;;;;;;;;;;;;;;;;;;;
2023/10/26 06:23:26;;;;;;;;;16.67;10.00;;;;;21.22;68.65;100355.59;146608;623;46010;-66
2023/10/26 06:26:28;;;;;;;;;9.33;6.67;;;;;21.23;68.95;100350.31;146607;693;46016;-66
2023/10/26 06:29:34;;;;;;;;;9.67;7.00;;;;;21.27;68.53;100352.97;146607;592;47020;-66
2023/10/26 06:32:37;;;;;;;;;10.33;9.00;;;;;21.31;68.50;100371.44;146606;680;45016;-66
2023/10/26 06:35:48;;;;;;;;;13.67;7.00;;;;;21.31;69.03;100374.09;146609;595;46010;-66
2023/10/26 06:38:42;;;;;;;;;12.67;9.33;;;;;21.31;69.82;100381.09;146607;600;46016;-66
2023/10/26 06:41:39;;;;;;;;;6.00;6.00;;;;;21.28;70.28;100384.62;146608;571;46020;-67
2023/10/26 06:45:02;;;;;;;;;18.67;13.00;;;;;20.20;70.41;100217.38;146605;582;47016;-67
2023/10/26 06:48:03;;;;;;;;;12.33;8.33;;;;;21.08;70.76;100381.03;146607;669;46020;-66
2023/10/26 06:51:13;;;;;;;;;17.00;16.00;;;;;21.08;70.74;100387.19;146608;569;46012;-66
2023/10/26 06:54:18;;;;;;;;;12.00;9.00;;;;;21.17;71.34;100405.69;146610;577;46014;-67
2023/10/26 06:57:19;;;;;;;;;12.67;9.67;;;;;21.29;71.30;100407.47;146606;605;46017;-67
2023/10/26 07:00:27;;;;;;;;;;;;;;;;;;;;;
2023/10/26 07:03:25;;;;;;;;;12.67;10.00;;;;;21.47;70.36;100411.06;146607;580;46016;-66
2023/10/26 07:06:52;;;;;;;;;15.33;11.33;;;;;21.57;71.54;100408.44;146608;584;46021;-67
2023/10/26 07:10:18;;;;;;;;;9.33;7.00;;;;;21.57;72.02;100400.53;146608;571;46012;-67
2023/10/26 07:13:33;;;;;;;;;9.00;7.00;;;;;21.61;71.62;100411.94;146633;576;45010;-66
2023/10/26 07:16:37;;;;;;;;;12.67;6.00;;;;;21.71;72.44;100400.53;146624;592;45016;-66
2023/10/26 07:19:34;;;;;;;;;8.67;7.00;;;;;21.91;73.11;100395.25;146628;573;45021;-67
2023/10/26 07:22:39;;;;;;;;;9.33;8.00;;;;;22.16;70.90;100387.31;146625;597;45016;-68
2023/10/26 07:25:46;;;;;;;;;11.00;7.33;;;;;22.34;70.11;100388.19;146627;593;45020;-66
2023/10/26 07:28:41;;;;;;;;;9.00;8.00;;;;;22.54;70.35;100408.41;146626;564;45025;-66
2023/10/26 07:31:49;;;;;;;;;8.67;8.33;;;;;21.18;67.75;100164.91;146629;578;45020;-67
2023/10/26 07:34:59;;;;;;;;;12.33;8.67;;;;;22.87;68.79;100439.12;146627;613;46914;-67
2023/10/26 07:37:56;;;;;;;;;8.67;8.67;;;;;23.02;68.18;100440.84;146626;602;46010;-67
2023/10/26 07:41:01;;;;;;;;;9.00;7.00;;;;;23.19;67.28;100446.09;146629;592;45016;-67
2023/10/26 07:44:02;;;;;;;;;13.00;8.67;;;;;23.34;66.90;100458.38;146630;578;46010;-67
2023/10/26 07:46:57;;;;;;;;;8.67;7.00;;;;;23.51;66.92;100465.28;146627;620;45033;-68
2023/10/26 07:50:01;;;;;;;;;8.67;6.00;;;;;23.68;65.64;100464.34;146632;576;45010;-69
2023/10/26 07:53:13;;;;;;;;;10.67;8.33;;;;;23.93;65.94;100476.53;146627;690;45016;-68
2023/10/26 07:56:27;;;;;;;;;14.33;10.67;;;;;24.00;63.15;100482.66;146627;604;46020;-66
2023/10/26 07:59:25;;;;;;;;;14.33;12.33;;;;;23.99;60.98;100494.16;146628;601;46010;-68
2023/10/26 08:02:23;;;;;;;;;18.00;11.67;;;;;23.96;60.03;100496.84;146628;578;46010;-67
2023/10/26 08:05:27;;;;;;;;;17.67;12.00;;;;;23.89;60.52;100501.25;146628;611;46013;-68
2023/10/26 08:08:24;;;;;;;;;17.67;13.00;;;;;23.75;61.73;100497.84;146625;597;46020;-69
2023/10/26 08:11:22;;;;;;;;;18.33;13.67;;;;;23.69;62.24;100503.19;146617;580;46015;-67
2023/10/26 08:14:43;;;;;;;;;11.33;10.00;;;;;22.14;63.11;100242.94;146604;565;47014;-66
2023/10/26 08:17:47;;;;;;;;;11.33;10.00;;;;;23.51;62.66;100499.69;146604;622;46016;-68
2023/10/26 08:20:53;;;;;;;;;8.00;7.33;;;;;23.42;63.75;100494.44;146608;566;46020;-67
2023/10/26 08:23:47;;;;;;;;;8.33;7.67;;;;;23.37;64.11;100501.56;146605;565;47012;-67
2023/10/26 08:26:51;;;;;;;;;10.00;8.00;;;;;23.39;63.69;100505.06;146612;672;46010;-67
2023/10/26 08:29:58;;;;;;;;;11.00;6.33;;;;;23.49;63.08;100521.78;146606;634;46012;-66
2023/10/26 08:33:12;;;;;;;;;6.67;6.67;;;;;23.55;60.76;100531.44;146604;648;49020;-67
2023/10/26 08:36:32;;;;;;;;;9.00;5.00;;;;;23.57;61.40;100533.19;146602;669;47016;-66
2023/10/26 08:39:33;;;;;;;;;5.00;5.00;;;;;23.59;61.33;100531.44;146605;585;46020;-67
2023/10/26 08:42:54;;;;;;;;;;;;;;;;;;;;;
2023/10/26 08:45:52;;;;;;;;;9.67;5.00;;;;;23.70;61.80;100520.81;146605;593;47012;-67
2023/10/26 08:49:01;;;;;;;;;9.67;5.00;;;;;23.69;62.78;100530.53;146603;598;46017;-65
2023/10/26 08:51:56;;;;;;;;;12.67;9.67;;;;;23.59;62.15;100536.72;146607;594;46020;-67
2023/10/26 08:54:59;;;;;;;;;10.33;8.33;;;;;23.42;61.44;100543.84;146603;625;47012;-66
2023/10/26 08:58:02;;;;;;;;;8.67;6.00;;;;;23.27;60.76;100536.84;146610;596;46020;-66
2023/10/26 09:01:10;;;;;;;;;6.67;5.00;;;;;23.17;61.55;100541.28;146605;580;46016;-67
2023/10/26 09:04:02;;;;;;;;;9.67;8.33;;;;;23.06;60.30;100558.97;146708;564;46012;-67
2023/10/26 09:07:00;;;;;;;;;8.33;6.00;;;;;23.01;59.37;100566.03;146624;601;46016;-67
2023/10/26 09:10:04;;;;;;;;;12.00;6.00;;;;;22.98;60.31;100547.53;146620;597;46020;-66
2023/10/26 09:13:25;;;;;;;;;11.00;7.00;;;;;23.03;61.90;100511.37;146616;583;46917;-66
2023/10/26 09:16:40;;;;;;;;;6.00;5.33;;;;;23.07;60.12;100477.87;146619;639;47014;-66
2023/10/26 09:19:45;;;;;;;;;7.00;5.00;;;;;23.13;60.52;100491.06;146619;660;46013;-66
2023/10/26 09:23:09;;;;;;;;;;;;;;;;;;;;;
2023/10/26 09:26:15;;;;;;;;;0.33;0.00;;;;;23.26;57.65;100503.34;146621;572;46016;-66
2023/10/26 09:29:11;;;;;;;;;2.33;1.00;;;;;23.22;54.22;100520.12;146626;605;46020;-67
2023/10/26 09:32:20;;;;;;;;;3.33;3.00;;;;;22.41;56.80;100386.41;146618;702;47012;-67
2023/10/26 09:35:36;;;;;;;;;3.67;2.33;;;;;23.17;59.30;100535.13;146624;582;46021;-66
2023/10/26 09:38:50;;;;;;;;;3.67;2.00;;;;;23.16;60.48;100522.81;146619;564;47917;-67
2023/10/26 09:41:51;;;;;;;;;3.67;2.00;;;;;23.13;60.15;100494.59;146622;580;47011;-66
2023/10/26 09:45:10;;;;;;;;;3.33;2.00;;;;;23.12;60.75;100461.09;146619;566;46016;-67
2023/10/26 09:48:16;;;;;;;;;1.00;0.00;;;;;23.11;59.55;100434.66;146623;576;47011;-67
2023/10/26 09:51:37;;;;;;;;;1.00;0.00;;;;;23.11;61.37;100450.53;146616;569;46016;-66
2023/10/26 09:54:46;;;;;;;;;1.33;0.00;;;;;23.09;60.88;100469.06;146622;627;46020;-66
2023/10/26 09:58:16;;;;;;;;;0.00;0.00;;;;;23.03;59.73;100456.72;146618;608;47012;-66
2023/10/26 10:01:56;;;;;;;;;2.00;1.00;;;;;22.19;60.12;100327.50;146623;590;46010;-67
2023/10/26 10:05:04;;;;;;;;;0.67;0.67;;;;;22.87;58.37;100477.91;146619;617;46917;-68
2023/10/26 10:08:44;;;;;;;;;2.33;0.33;;;;;21.96;60.00;100303.72;146619;607;46020;-66
2023/10/26 10:11:40;;;;;;;;;1.00;0.00;;;;;22.72;58.10;100428.62;146618;599;46016;-66
2023/10/26 10:15:15;;;;;;;;;3.67;1.33;;;;;21.93;59.98;100301.09;146622;657;47020;-67
2023/10/26 10:18:16;;;;;;;;;3.67;0.00;;;;;22.69;60.82;100442.72;146618;564;46013;-67
2023/10/26 10:21:47;;;;;;;;;2.00;2.00;;;;;21.82;58.84;100322.25;146622;596;46020;-66
2023/10/26 10:25:05;;;;;;;;;4.00;1.67;;;;;21.71;59.54;100321.34;146615;586;47012;-66
2023/10/26 10:28:27;;;;;;;;;5.00;3.33;;;;;21.61;63.13;100309.94;146620;590;46022;-65
2023/10/26 10:31:28;;;;;;;;;5.33;4.67;;;;;22.36;64.48;100444.53;146621;599;46012;-65
2023/10/26 10:34:25;;;;;;;;;6.00;4.67;;;;;22.31;65.44;100441.03;146621;625;47010;-65
2023/10/26 10:37:55;;;;;;;;;3.00;3.00;;;;;22.16;66.15;100422.56;146621;588;46012;-65
2023/10/26 10:41:19;;;;;;;;;10.33;9.67;;;;;21.20;67.61;100308.13;146621;626;47014;-66
2023/10/26 10:44:11;;;;;;;;;5.00;4.33;;;;;22.00;70.49;100453.34;146615;563;47014;-66
2023/10/26 10:47:16;;;;;;;;;6.00;5.33;;;;;21.94;74.11;100470.94;146619;656;46021;-67
2023/10/26 10:50:45;;;;;;;;;4.00;4.00;;;;;21.81;71.22;100484.13;146615;659;47012;-66
2023/10/26 10:54:00;;;;;;;;;9.00;6.33;;;;;21.73;73.55;100467.37;146620;663;46010;-67
2023/10/26 10:57:14;;;;;;;;;8.00;7.00;;;;;21.65;76.80;100425.16;146617;668;47017;-66
2023/10/26 11:00:32;;;;;;;;;12.33;9.67;;;;;21.40;76.38;100389.97;146623;570;47010;-66
2023/10/26 11:03:31;;;;;;;;;20.00;14.00;;;;;21.14;76.71;100378.44;146613;604;46017;-67
2023/10/26 11:06:27;;;;;;;;;11.33;8.00;;;;;21.00;77.11;100386.31;146615;569;46014;-67
2023/10/26 11:09:39;;;;;;;;;8.00;6.00;;;;;21.00;76.05;100386.31;146618;606;46012;-66
2023/10/26 11:12:55;;;;;;;;;6.67;4.00;;;;;19.60;75.81;100126.75;146625;573;46010;-66
2023/10/26 11:15:59;;;;;;;;;7.00;2.67;;;;;21.05;76.13;100359.94;146617;579;47016;-66
2023/10/26 11:18:54;;;;;;;;;9.00;5.67;;;;;21.13;79.53;100356.47;146623;675;46021;-66
2023/10/26 11:22:13;;;;;;;;;5.67;5.00;;;;;19.72;76.90;100078.59;146614;603;46016;-65
2023/10/26 11:25:10;;;;;;;;;5.00;5.00;;;;;21.33;76.71;100337.16;146622;572;46010;-66
2023/10/26 11:28:49;;;;;;;;;6.67;4.00;;;;;21.46;76.20;100346.84;146618;586;46016;-65
2023/10/26 11:32:08;;;;;;;;;4.67;3.67;;;;;21.58;75.29;100336.31;146621;566;47010;-66
2023/10/26 11:35:39;;;;;;;;;4.67;3.00;;;;;21.70;75.70;100322.25;146618;663;46016;-65
2023/10/26 11:39:21;;;;;;;;;5.00;5.00;;;;;21.03;73.39;100166.63;146621;593;46020;-66
2023/10/26 11:42:19;;;;;;;;;4.33;2.67;;;;;21.96;75.42;100314.28;146618;610;46012;-66
2023/10/26 11:45:27;;;;;;;;;;;;;;;;;;;;;
2023/10/26 11:48:36;;;;;;;;;10.00;6.00;;;;;22.20;72.16;100323.94;146627;563;46012;-66
2023/10/26 11:51:39;;;;;;;;;3.33;3.33;;;;;22.22;71.73;100332.75;146625;659;47010;-67
2023/10/26 11:54:46;;;;;;;;;;;;;;;;;;;;;
2023/10/26 11:58:00;;;;;;;;;;;;;;;;;;;;;
2023/10/26 12:01:07;;;;;;;;;5.67;3.00;;;;;22.71;73.20;100322.03;146624;599;46016;-66
2023/10/26 12:04:12;;;;;;;;;;;;;;;;;;;;;
2023/10/26 12:07:24;;;;;;;;;8.67;6.67;;;;;23.31;73.29;100320.81;146626;597;46013;-66
2023/10/26 12:10:27;;;;;;;;;8.33;5.67;;;;;23.51;70.89;100324.16;146626;601;47010;-66
2023/10/26 12:13:38;;;;;;;;;5.33;3.00;;;;;23.70;70.36;100324.91;146622;582;46016;-66
2023/10/26 12:16:58;;;;;;;;;;;;;;;;;;;;;
2023/10/26 12:20:23;;;;;;;;;;;;;;;;;;;;;
2023/10/26 12:23:20;;;;;;;;;8.33;6.00;;;;;24.14;67.76;100300.66;146631;579;46010;-66
2023/10/26 12:26:24;;;;;;;;;5.00;5.00;;;;;24.13;66.98;100292.72;146622;586;47020;-67
2023/10/26 12:29:29;;;;;;;;;8.67;5.00;;;;;24.10;66.02;100282.16;146629;597;46020;-67
2023/10/26 12:32:11;;;;;;;;;7.33;5.00;;;;;24.07;63.60;100263.66;146696;565;47012;-68
2023/10/26 12:35:14;;;;;;;;;6.00;4.33;;;;;24.02;64.50;100252.22;146620;676;46016;-68
2023/10/26 12:38:25;;;;;;;;;;;;;;;;;;;;;
2023/10/26 12:41:40;;;;;;;;;5.33;4.67;;;;;24.08;64.28;100238.91;146621;673;46018;-68
2023/10/26 12:44:47;;;;;;;;;6.00;4.00;;;;;24.11;63.63;100238.88;146623;691;46021;-68
2023/10/26 12:47:58;;;;;;;;;3.33;3.33;;;;;24.19;64.59;100242.31;146618;710;47012;-68
2023/10/26 12:50:53;;;;;;;;;6.67;2.67;;;;;24.26;60.85;100246.63;146620;609;46020;-68
2023/10/26 12:54:01;;;;;;;;;5.00;3.00;;;;;24.31;61.39;100250.13;146618;650;46016;-68
2023/10/26 12:56:59;;;;;;;;;3.67;1.67;;;;;24.39;64.67;100245.59;146618;577;46020;-70
2023/10/26 12:59:56;;;;;;;;;6.00;4.00;;;;;24.58;64.00;100253.31;146619;592;46016;-68
2023/10/26 13:02:52;;;;;;;;;4.67;3.00;;;;;24.76;62.53;100252.19;146619;641;48020;-69
2023/10/26 13:05:51;;;;;;;;;4.00;1.67;;;;;24.80;62.86;100253.91;146616;665;46016;-68
2023/10/26 13:08:59;;;;;;;;;2.67;2.67;;;;;24.73;63.21;100247.81;146620;574;46010;-67
2023/10/26 13:12:06;;;;;;;;;6.33;3.00;;;;;24.61;64.08;100238.28;146621;579;46014;-68
2023/10/26 13:15:15;;;;;;;;;6.00;6.00;;;;;24.52;64.56;100250.78;146621;564;46021;-67
2023/10/26 13:18:35;;;;;;;;;5.00;3.00;;;;;24.36;62.93;100245.66;146612;645;47012;-69
2023/10/26 13:21:39;;;;;;;;;5.33;5.00;;;;;24.23;62.25;100256.41;146621;564;46020;-68
2023/10/26 13:24:37;;;;;;;;;4.67;2.33;;;;;24.06;57.38;100262.78;146617;582;46016;-67
2023/10/26 13:27:48;;;;;;;;;6.00;2.67;;;;;23.89;57.25;100260.31;146616;581;46020;-68
2023/10/26 13:31:19;;;;;;;;;5.67;2.33;;;;;23.75;60.90;100209.28;146613;712;47919;-66
2023/10/26 13:34:10;;;;;;;;;2.33;2.33;;;;;24.32;56.49;100245.69;146712;566;46023;-66
2023/10/26 13:37:28;;;;;;;;;6.00;5.00;;;;;24.36;57.41;100200.59;146629;580;46012;-67
2023/10/26 13:40:41;;;;;;;;;5.00;4.00;;;;;24.77;58.97;100243.38;146628;570;46021;-67
2023/10/26 13:43:45;;;;;;;;;7.00;3.00;;;;;24.85;58.56;100234.38;146622;590;48016;-67
2023/10/26 13:46:48;;;;;;;;;6.00;4.33;;;;;24.77;58.11;100230.09;146631;564;46010;-66
2023/10/26 13:49:49;;;;;;;;;3.67;3.67;;;;;24.70;57.55;100231.94;146622;601;46922;-67
2023/10/26 13:53:11;;;;;;;;;6.67;4.67;;;;;24.53;57.33;100215.41;146623;670;48022;-66
2023/10/26 13:56:14;;;;;;;;;7.67;4.00;;;;;24.39;57.20;100207.59;146623;621;46017;-67
2023/10/26 13:59:18;;;;;;;;;;;;;;;;;;;;;
2023/10/26 14:02:29;;;;;;;;;;;;;;;;;;;;;
2023/10/26 14:05:37;;;;;;;;;4.00;2.33;;;;;24.30;58.85;100208.62;146627;586;47010;-66
2023/10/26 14:08:41;;;;;;;;;5.00;2.67;;;;;24.32;58.56;100192.69;146622;625;46014;-67
2023/10/26 14:11:40;;;;;;;;;6.33;5.33;;;;;24.38;58.26;100188.19;146630;602;47010;-66
2023/10/26 14:14:40;;;;;;;;;4.00;2.00;;;;;24.32;57.06;100175.03;146621;594;46016;-67
2023/10/26 14:17:38;;;;;;;;;3.67;3.67;;;;;24.21;60.17;100174.31;146626;641;46025;-67
2023/10/26 14:20:51;;;;;;;;;;;;;;;;;;;;;
2023/10/26 14:24:10;;;;;;;;;;;;;;;;;;;;;
2023/10/26 14:27:06;;;;;;;;;6.00;4.00;;;;;24.12;60.79;100169.13;146625;582;47012;-66
2023/10/26 14:30:10;;;;;;;;;6.33;3.00;;;;;24.11;61.30;100170.91;146630;572;47010;-66
2023/10/26 14:33:07;;;;;;;;;3.33;1.33;;;;;24.12;61.02;100159.41;146618;715;47037;-66
2023/10/26 14:36:11;;;;;;;;;3.33;3.33;;;;;24.12;61.49;100162.06;146625;563;46010;-65
2023/10/26 14:39:04;;;;;;;;;3.33;3.00;;;;;24.08;61.30;100159.47;146614;652;47015;-67
2023/10/26 14:42:03;;;;;;;;;4.33;3.67;;;;;24.04;61.39;100161.28;146623;569;47020;-67
2023/10/26 14:45:10;;;;;;;;;6.67;4.67;;;;;23.97;61.04;100157.84;146616;593;46916;-67
2023/10/26 14:48:07;;;;;;;;;4.00;3.00;;;;;23.90;61.31;100150.88;146626;586;46010;-66
2023/10/26 14:51:19;;;;;;;;;3.33;1.67;;;;;23.82;61.99;100150.06;146617;672;47012;-66
2023/10/26 14:54:15;;;;;;;;;7.67;3.33;;;;;23.69;61.59;100159.06;146621;615;47021;-66
2023/10/26 14:57:17;;;;;;;;;5.67;3.00;;;;;23.59;62.48;100155.63;146620;568;46016;-67
2023/10/26 15:00:11;;;;;;;;;7.00;4.00;;;;;23.54;63.61;100159.19;146621;740;46020;-67
2023/10/26 15:03:15;;;;;;;;;6.33;5.00;;;;;23.45;65.81;100168.09;146613;632;47017;-66